Vila-seca, Spain
Current Conditions -  °F | °C
As of 10:00 PM on Thursday 27 Nov 2014 (Local Time) from LERS Reporting Station
Scattered Clouds Scattered Clouds  
Wind Chill: 59°   Ceiling: Unl
Heat Index: 59°   Visibility: 6mi
Dew Point: 55°   Wind: 6mph
Humidity: 88%   Direction: 50°NE
Pressure: 29.53"   Gusts: NA
Location:  41.12°N, 1.15°E
Report Text: LERS 272100Z 05005KT 9999 FEW020 SCT036 15/13 Q1000
Loading
Personal Weather Stations






























Interactive Weather Map New forecast layout! Learn more

10-Day Weather Forecast

Advertisements
Track Severe Weather on mobile